Time;durP1;ratioP1;P1;durP2;ratioP2;P2;SDS_P1;SDS_P2;PMS_P1;PMS_P2;Temp;Humidity;BMP_temperature;BMP_pressure;BME280_temperature;BME280_humidity;BME280_pressure;Samples;Min_cycle;Max_cycle;Signal;HPM_P1;HPM_P2
2022/09/22 00:01:31;;;;;;;6.95;3.52;;;;;;;9.43;87.26;99347.17;1629167;88;21029;-88
2022/09/22 00:04:05;;;;;;;5.37;2.92;;;;;;;9.41;87.90;99351.53;1633367;88;21030;-89
2022/09/22 00:06:39;;;;;;;7.55;3.33;;;;;;;9.41;87.78;99344.16;1631115;87;21034;-90
2022/09/22 00:09:10;;;;;;;4.55;2.85;;;;;;;9.43;86.79;99346.30;1625145;88;21549;-88
2022/09/22 00:11:48;;;;;;;5.28;2.50;;;;;;;9.41;87.58;99343.75;1633539;88;21035;-89
2022/09/22 00:14:23;;;;;;;4.78;2.80;;;;;;;9.42;87.28;99345.44;1633520;87;21073;-87
2022/09/22 00:16:55;;;;;;;7.22;3.37;;;;;;;9.41;86.94;99344.16;1626085;88;21006;-89
2022/09/22 00:19:34;;;;;;;4.60;2.70;;;;;;;9.35;87.43;99340.80;1633123;88;21069;-89
2022/09/22 00:22:03;;;;;;;5.87;3.08;;;;;;;9.32;87.62;99342.14;1634009;88;21057;-86
2022/09/22 00:24:31;;;;;;;5.05;3.20;;;;;;;9.30;86.73;99341.76;1654795;87;21009;-87
2022/09/22 00:26:59;;;;;;;6.47;3.17;;;;;;;9.27;88.52;99341.38;1660994;85;21040;-86
2022/09/22 00:29:28;;;;;;;8.28;3.27;;;;;;;9.30;88.19;99343.05;1673824;85;21029;-89
2022/09/22 00:31:57;;;;;;;7.72;3.22;;;;;;;9.30;88.52;99343.91;1667611;84;20949;-86
2022/09/22 00:34:26;;;;;;;4.50;2.77;;;;;;;9.28;89.30;99340.48;1610841;89;20992;-86
2022/09/22 00:36:55;;;;;;;5.67;2.62;;;;;;;9.27;88.65;99340.08;1635057;88;21061;-89
2022/09/22 00:39:22;;;;;;;5.67;3.30;;;;;;;9.29;88.86;99333.55;1633827;87;21017;-86
2022/09/22 00:41:52;;;;;;;4.65;2.87;;;;;;;9.28;88.97;99327.50;1632384;88;21018;-88
2022/09/22 00:44:39;;;;;;;9.85;3.15;;;;;;;9.28;88.76;99330.09;1650852;87;21017;-88
2022/09/22 00:47:36;;;;;;;6.20;3.02;;;;;;;9.27;88.42;99320.63;1630761;88;20971;-86
2022/09/22 00:50:14;;;;;;;6.33;3.02;;;;;;;9.27;89.29;99316.73;1641536;85;21009;-89
2022/09/22 00:53:02;;;;;;;5.80;3.00;;;;;;;9.27;89.85;99324.52;1609513;88;21020;-89
2022/09/22 00:55:41;;;;;;;5.92;3.58;;;;;;;9.28;88.88;99313.69;1623112;88;21015;-86
2022/09/22 00:58:14;;;;;;;5.67;3.30;;;;;;;9.31;88.60;99320.10;1645873;86;21477;-88
2022/09/22 01:00:42;;;;;;;6.05;3.20;;;;;;;9.24;89.72;99314.17;1639348;87;20985;-89
2022/09/22 01:03:17;;;;;;;5.12;3.20;;;;;;;9.24;88.94;99315.47;1645610;86;21001;-88
2022/09/22 01:05:48;;;;;;;6.62;3.12;;;;;;;9.21;89.10;99310.34;1635010;87;20980;-88
2022/09/22 01:08:19;;;;;;;6.05;2.90;;;;;;;9.21;89.23;99312.94;1628510;86;20996;-90
2022/09/22 01:10:48;;;;;;;5.12;3.02;;;;;;;9.21;89.77;99303.86;1644911;87;21157;-88
2022/09/22 01:13:47;;;;;;;7.10;3.02;;;;;;;9.18;90.06;99303.05;1646342;86;21462;-89
2022/09/22 01:16:47;;;;;;;8.00;3.27;;;;;;;9.19;89.09;99303.45;1635823;87;21025;-86
2022/09/22 01:19:53;;;;;;;6.85;3.40;;;;;;;9.14;89.60;99299.19;1642378;86;21004;-88
2022/09/22 01:22:45;;;;;;;6.42;3.25;;;;;;;9.12;90.81;99297.06;1661617;86;21013;-86
2022/09/22 01:25:51;;;;;;;6.17;3.52;;;;;;;9.10;89.95;99299.27;1644305;86;21012;-90
2022/09/22 01:28:49;;;;;;;5.65;3.15;;;;;;;9.12;89.92;99300.10;1571712;90;21009;-88
2022/09/22 01:32:18;;;;;;;9.35;3.00;;;;;;;9.08;89.43;99298.44;1624657;87;21082;-89
2022/09/22 01:34:56;;;;;;;5.95;3.22;;;;;;;9.07;89.22;99298.89;1625140;88;21036;-86
2022/09/22 01:37:43;;;;;;;6.92;3.37;;;;;;;9.07;89.63;99301.90;1664328;85;21501;-86
2022/09/22 01:40:16;;;;;;;6.97;2.92;;;;;;;9.03;90.88;99302.83;1642370;85;20980;-87
2022/09/22 01:42:52;;;;;;;4.65;2.72;;;;;;;9.03;90.50;99300.23;1647048;87;21009;-87
2022/09/22 01:45:24;;;;;;;6.08;3.65;;;;;;;9.04;89.97;99294.19;1641842;87;21021;-89
2022/09/22 01:47:58;;;;;;;8.18;3.50;;;;;;;9.03;90.41;99292.45;1632946;87;20998;-89
2022/09/22 01:50:33;;;;;;;8.38;3.80;;;;;;;9.06;89.79;99300.20;1643936;87;21025;-89
2022/09/22 01:53:06;;;;;;;5.22;3.10;;;;;;;9.05;89.83;99297.17;1629641;87;21030;-88
2022/09/22 01:55:41;;;;;;;5.70;3.30;;;;;;;9.04;90.18;99301.52;1645073;85;21009;-90
2022/09/22 01:58:19;;;;;;;6.45;2.90;;;;;;;9.04;90.10;99296.33;1642814;87;20997;-90
2022/09/22 02:00:52;;;;;;;5.95;3.22;;;;;;;9.04;89.92;99301.52;1616924;87;21009;-89
2022/09/22 02:03:37;;;;;;;6.08;3.35;;;;;;;9.02;90.39;99302.43;1645596;87;21017;-89
2022/09/22 02:06:13;;;;;;;4.78;2.85;;;;;;;9.06;90.07;99302.80;1648386;87;21013;-88
2022/09/22 02:08:54;;;;;;;7.90;2.87;;;;;;;9.03;90.67;99296.34;1652595;86;21451;-90
2022/09/22 02:11:22;;;;;;;4.28;2.58;;;;;;;9.02;90.73;99296.80;1646297;85;20990;-91
2022/09/22 02:13:51;;;;;;;7.78;3.30;;;;;;;9.05;90.50;99291.58;1643497;87;21036;-89
2022/09/22 02:16:21;;;;;;;4.80;2.85;;;;;;;9.06;90.50;99291.97;1668350;86;20947;-87
2022/09/22 02:18:54;;;;;;;6.30;3.22;;;;;;;9.09;89.77;99288.47;1593718;88;21005;-86
2022/09/22 02:25:52;;;;;;;5.17;2.92;;;;;;;9.15;89.44;99287.06;1620963;88;21024;-87
2022/09/22 02:31:24;;;;;;;;;;;;;;;9.08;89.73;99288.91;1652778;86;20970;-83
2022/09/22 02:33:52;;;;;;;5.00;2.80;;;;;;;9.09;89.69;99284.58;1649543;84;20109;-83
2022/09/22 02:36:34;;;;;;;5.08;2.85;;;;;;;9.07;89.85;99283.74;1650914;85;21482;-85
2022/09/22 02:39:07;;;;;;;6.92;3.08;;;;;;;9.07;89.52;99280.73;1600877;88;21084;-86
2022/09/22 02:41:43;;;;;;;5.15;2.90;;;;;;;9.08;89.80;99282.43;1626875;88;21511;-87
2022/09/22 02:44:19;;;;;;;5.22;2.70;;;;;;;9.11;89.08;99294.06;1617289;89;21534;-84
2022/09/22 02:47:08;;;;;;;4.30;2.65;;;;;;;9.11;88.56;99291.89;1605867;88;21057;-86
2022/09/22 02:49:55;;;;;;;4.45;2.75;;;;;;;9.07;89.43;99292.83;1628514;88;21068;-87
2022/09/22 02:52:24;;;;;;;6.15;2.98;;;;;;;9.07;89.47;99289.81;1640369;87;21001;-87
2022/09/22 02:54:53;;;;;;;5.30;2.95;;;;;;;9.07;89.75;99291.52;1623444;86;21036;-87
2022/09/22 02:57:21;;;;;;;6.00;3.12;;;;;;;9.08;89.81;99286.32;1652123;85;20938;-88
2022/09/22 02:59:48;;;;;;;7.92;3.08;;;;;;;9.09;89.88;99285.88;1671097;85;20969;-87
2022/09/22 03:02:16;;;;;;;6.50;3.42;;;;;;;9.11;89.77;99288.88;1680617;85;20938;-88
2022/09/22 03:04:44;;;;;;;7.08;3.72;;;;;;;9.13;89.76;99288.83;1671682;85;20949;-88
2022/09/22 03:07:11;;;;;;;5.90;3.25;;;;;;;9.15;89.82;99284.06;1612727;89;21529;-89
2022/09/22 03:09:38;;;;;;;7.30;3.20;;;;;;;9.19;89.35;99286.58;1651773;86;21531;-89
2022/09/22 03:12:06;;;;;;;6.60;3.50;;;;;;;9.19;89.70;99296.95;1638087;87;21026;-87
2022/09/22 03:14:34;;;;;;;6.08;3.08;;;;;;;9.19;89.48;99293.95;1661529;86;21020;-89
2022/09/22 03:17:01;;;;;;;6.12;2.90;;;;;;;9.19;89.65;99286.17;1644593;87;21017;-87
2022/09/22 03:19:29;;;;;;;6.00;3.22;;;;;;;9.17;88.89;99296.98;1675201;85;20958;-90
2022/09/22 03:21:56;;;;;;;8.50;3.25;;;;;;;9.17;89.05;99300.87;1646584;86;21049;-87
2022/09/22 03:24:24;;;;;;;7.95;3.60;;;;;;;9.18;88.66;99299.16;1633868;88;21017;-88
2022/09/22 03:26:51;;;;;;;7.30;3.90;;;;;;;9.13;89.34;99299.20;1635028;87;21066;-88
2022/09/22 03:29:19;;;;;;;7.55;3.12;;;;;;;9.14;89.55;99306.13;1636968;87;21061;-88
2022/09/22 03:31:47;;;;;;;7.35;3.20;;;;;;;9.17;88.86;99304.77;1664563;85;20988;-87
2022/09/22 03:34:14;;;;;;;6.15;3.15;;;;;;;9.14;89.20;99306.97;1640783;87;21618;-90
2022/09/22 03:36:42;;;;;;;6.05;3.12;;;;;;;9.18;89.23;99308.23;1672506;86;20972;-89
2022/09/22 03:39:10;;;;;;;5.80;3.60;;;;;;;9.18;89.48;99305.19;1680434;85;21422;-86
2022/09/22 03:41:37;;;;;;;7.65;3.25;;;;;;;9.20;89.01;99307.77;1669477;85;20960;-87
2022/09/22 03:44:05;;;;;;;6.67;3.77;;;;;;;9.21;89.29;99302.56;1610771;89;20982;-90
2022/09/22 03:46:33;;;;;;;11.40;4.25;;;;;;;9.24;89.77;99305.54;1635885;87;20994;-88
2022/09/22 03:49:02;;;;;;;9.53;3.20;;;;;;;9.24;88.82;99303.80;1654803;86;21020;-88
2022/09/22 03:51:29;;;;;;;11.40;3.58;;;;;;;9.25;88.86;99305.52;1643553;87;20972;-89
2022/09/22 03:53:57;;;;;;;19.00;4.03;;;;;;;9.23;88.97;99308.58;1650516;85;21024;-86
2022/09/22 03:56:24;;;;;;;10.85;3.52;;;;;;;9.20;89.81;99306.02;1683107;85;20973;-89
2022/09/22 03:58:52;;;;;;;6.33;3.40;;;;;;;9.21;89.62;99308.17;1616023;88;21095;-87
2022/09/22 04:01:19;;;;;;;7.72;3.50;;;;;;;9.21;88.92;99305.16;1637138;87;20981;-90
2022/09/22 04:03:48;;;;;;;6.90;3.35;;;;;;;9.21;89.42;99307.75;1666669;86;21006;-88
2022/09/22 04:06:15;;;;;;;6.25;3.08;;;;;;;9.25;89.42;99311.12;1661895;86;21035;-87
2022/09/22 04:08:43;;;;;;;13.75;3.80;;;;;;;9.29;88.76;99308.89;1678763;85;21017;-90
2022/09/22 04:11:10;;;;;;;8.93;3.00;;;;;;;9.30;88.54;99306.73;1682255;85;21008;-89
2022/09/22 04:13:37;;;;;;;8.65;3.52;;;;;;;9.28;88.53;99309.80;1617573;87;21103;-88
2022/09/22 04:16:05;;;;;;;5.85;3.35;;;;;;;9.30;88.63;99312.77;1632739;87;21530;-87
2022/09/22 04:18:33;;;;;;;7.35;3.60;;;;;;;9.31;88.64;99306.71;1637991;87;21021;-86
2022/09/22 04:21:01;;;;;;;12.28;4.08;;;;;;;9.32;88.21;99308.86;1613194;87;21061;-87
2022/09/22 04:23:28;;;;;;;7.28;3.62;;;;;;;9.31;88.17;99320.98;1663764;85;20961;-89
2022/09/22 04:25:56;;;;;;;7.03;3.30;;;;;;;9.32;88.34;99318.78;1658092;85;21082;-88
2022/09/22 04:28:24;;;;;;;7.17;3.52;;;;;;;9.29;88.43;99327.05;1629540;87;21074;-89
2022/09/22 04:30:51;;;;;;;9.30;3.25;;;;;;;9.28;88.59;99327.50;1642394;87;21067;-87
2022/09/22 04:33:19;;;;;;;7.50;3.98;;;;;;;9.29;88.84;99327.05;1662710;85;21070;-90
2022/09/22 04:35:50;;;;;;;10.15;3.52;;;;;;;9.34;88.29;99331.30;1657027;85;20998;-88
2022/09/22 04:38:18;;;;;;;7.95;3.95;;;;;;;9.32;88.59;99336.95;1658307;85;20954;-87
2022/09/22 04:40:45;;;;;;;10.23;3.12;;;;;;;9.35;88.07;99333.44;1662437;85;21022;-89
2022/09/22 04:43:13;;;;;;;7.03;3.67;;;;;;;9.36;88.56;99332.13;1669030;85;20983;-88
2022/09/22 04:45:47;;;;;;;5.67;3.58;;;;;;;9.41;88.64;99332.48;1670223;86;21069;-87
2022/09/22 04:48:13;;;;;;;9.23;3.80;;;;;;;9.48;88.54;99343.19;1664386;86;21153;-88
2022/09/22 04:50:40;;;;;;;8.68;3.87;;;;;;;9.51;88.67;99338.81;1668991;86;21049;-89
2022/09/22 04:53:08;;;;;;;7.75;3.62;;;;;;;9.56;88.77;99341.32;1669903;86;21039;-87
2022/09/22 04:55:35;;;;;;;9.90;3.92;;;;;;;9.62;88.93;99334.72;1667994;85;21038;-88
2022/09/22 04:58:03;;;;;;;8.15;3.75;;;;;;;9.71;88.69;99337.17;1674463;86;21010;-85
2022/09/22 05:00:31;;;;;;;8.98;3.40;;;;;;;9.73;88.72;99340.59;1668687;85;20953;-86
2022/09/22 05:03:00;;;;;;;6.00;3.47;;;;;;;9.76;88.76;99337.08;1669745;86;21062;-88
2022/09/22 05:05:28;;;;;;;16.23;4.00;;;;;;;9.78;88.04;99343.55;1665240;85;20997;-89
2022/09/22 05:07:56;;;;;;;5.33;3.08;;;;;;;9.80;87.75;99342.62;1671839;86;21061;-90
2022/09/22 05:10:24;;;;;;;7.62;3.75;;;;;;;9.76;87.71;99346.16;1671744;85;21049;-90
2022/09/22 05:12:52;;;;;;;7.83;3.40;;;;;;;9.78;87.81;99349.59;1667041;86;21093;-90
2022/09/22 05:15:21;;;;;;;8.40;4.12;;;;;;;9.82;88.37;99351.25;1674487;86;21029;-88
2022/09/22 05:17:54;;;;;;;5.70;3.10;;;;;;;9.85;87.99;99354.25;1673136;86;21006;-86
2022/09/22 05:20:21;;;;;;;7.28;3.67;;;;;;;9.86;87.50;99350.30;1672259;86;20999;-87
2022/09/22 05:22:49;;;;;;;8.70;3.77;;;;;;;9.85;87.87;99352.95;1672104;86;21034;-86
2022/09/22 05:25:18;;;;;;;7.87;3.25;;;;;;;9.85;87.40;99355.10;1665958;85;20990;-87
2022/09/22 05:27:54;;;;;;;9.30;3.30;;;;;;;9.86;87.77;99354.20;1651579;86;20999;-84
2022/09/22 05:30:24;;;;;;;7.75;3.20;;;;;;;9.93;87.65;99349.32;1665521;85;21034;-89
2022/09/22 05:32:52;;;;;;;6.62;3.55;;;;;;;9.98;87.44;99355.72;1667455;84;21137;-88
2022/09/22 05:35:22;;;;;;;8.48;3.92;;;;;;;10.05;87.31;99356.03;1666497;86;21043;-87
2022/09/22 05:37:51;;;;;;;9.10;3.70;;;;;;;10.07;87.35;99359.91;1665725;86;20967;-90
2022/09/22 05:40:22;;;;;;;6.22;3.60;;;;;;;10.08;87.20;99355.11;1673119;86;20982;-88
2022/09/22 05:42:51;;;;;;;7.83;3.50;;;;;;;10.10;87.27;99360.68;1667079;86;21018;-87
2022/09/22 05:45:20;;;;;;;8.60;3.62;;;;;;;10.14;87.49;99353.69;1664346;85;20991;-89
2022/09/22 05:47:48;;;;;;;7.35;3.80;;;;;;;10.20;87.08;99361.81;1655285;85;21000;-87
2022/09/22 05:50:18;;;;;;;8.90;3.92;;;;;;;10.24;86.81;99372.56;1669042;86;21012;-87
2022/09/22 05:52:45;;;;;;;6.28;3.40;;;;;;;10.23;86.99;99358.72;1655293;85;21020;-85
2022/09/22 05:55:13;;;;;;;8.05;3.10;;;;;;;10.30;86.91;99358.18;1651670;86;21485;-88
2022/09/22 05:57:42;;;;;;;6.00;3.17;;;;;;;10.32;86.72;99359.85;1613484;88;21047;-86
2022/09/22 06:00:12;;;;;;;8.95;3.50;;;;;;;10.36;86.92;99355.45;1634621;88;21006;-90
2022/09/22 06:02:44;;;;;;;8.23;3.00;;;;;;;10.41;86.80;99356.23;1653066;85;21041;-89
2022/09/22 06:05:12;;;;;;;8.75;3.58;;;;;;;10.45;86.68;99357.88;1649491;85;21013;-86
2022/09/22 06:07:40;;;;;;;6.95;3.05;;;;;;;10.46;86.62;99347.03;1658939;85;21517;-87
2022/09/22 06:10:10;;;;;;;9.48;3.20;;;;;;;10.47;86.22;99353.50;1651775;85;21509;-87
2022/09/22 06:12:38;;;;;;;6.15;3.02;;;;;;;10.47;86.39;99358.70;1653825;85;21028;-90
2022/09/22 06:15:06;;;;;;;7.85;3.33;;;;;;;10.48;86.20;99350.45;1638462;86;21067;-88
2022/09/22 06:17:34;;;;;;;6.58;3.60;;;;;;;10.48;86.07;99356.95;1650768;85;21125;-89
2022/09/22 06:20:01;;;;;;;7.47;2.98;;;;;;;10.52;86.02;99357.30;1654245;85;20996;-86
2022/09/22 06:22:29;;;;;;;14.03;3.50;;;;;;;10.59;85.68;99357.59;1649586;85;21186;-82
2022/09/22 06:24:57;;;;;;;5.30;2.90;;;;;;;;;;1649507;85;21012;-84
2022/09/22 06:27:24;;;;;;;5.62;2.77;;;;;;;;;;1650525;85;20996;-87
2022/09/22 06:29:51;;;;;;;4.40;2.60;;;;;;;10.65;85.84;99366.56;1651582;85;21001;-85
2022/09/22 06:32:18;;;;;;;4.58;2.40;;;;;;;10.69;85.80;99364.77;1646603;85;21025;-85
2022/09/22 06:34:46;;;;;;;8.30;2.77;;;;;;;10.69;85.76;99360.41;1653805;85;20988;-84
2022/09/22 06:37:14;;;;;;;5.55;2.90;;;;;;;10.75;85.58;99365.92;1653911;85;21074;-85
2022/09/22 06:39:42;;;;;;;5.28;2.83;;;;;;;10.72;85.48;99369.45;1654599;85;21480;-84
2022/09/22 06:42:09;;;;;;;9.63;2.62;;;;;;;10.77;85.40;99371.95;1649158;85;21495;-87
2022/09/22 06:44:37;;;;;;;5.03;2.75;;;;;;;10.84;85.07;99370.94;1610306;88;21012;-84
2022/09/22 06:47:07;;;;;;;3.87;2.35;;;;;;;10.88;84.99;99367.38;1635899;86;20986;-80
2022/09/22 06:49:35;;;;;;;6.22;2.58;;;;;;;10.94;84.85;99371.15;1654596;85;20993;-90
2022/09/22 06:52:03;;;;;;;6.20;2.70;;;;;;;10.97;84.95;99368.91;1638749;87;20976;-86
2022/09/22 06:54:30;;;;;;;6.10;2.85;;;;;;;11.05;84.93;99373.50;1655345;85;20966;-86
2022/09/22 06:56:58;;;;;;;6.95;2.90;;;;;;;11.13;85.10;99379.83;1610228;87;21099;-82
2022/09/22 06:59:25;;;;;;;4.97;2.87;;;;;;;11.24;85.00;99373.06;1649901;85;20975;-85
2022/09/22 07:01:52;;;;;;;6.40;3.08;;;;;;;11.29;84.45;99373.83;1659318;85;21013;-87
2022/09/22 07:04:22;;;;;;;5.70;3.00;;;;;;;11.37;84.20;99371.89;1428073;85;10000458;-84
2022/09/22 07:06:49;;;;;;;4.83;2.33;;;;;;;11.43;84.07;99374.80;1638812;86;21030;-88
2022/09/22 07:09:17;;;;;;;9.18;2.98;;;;;;;11.52;83.75;99369.38;1648440;85;21001;-83
2022/09/22 07:11:46;;;;;;;6.70;4.62;;;;;;;11.66;83.71;99369.04;1614212;87;21024;-89
2022/09/22 07:14:14;;;;;;;6.37;2.90;;;;;;;11.71;83.45;99374.52;1607827;87;21616;-88
2022/09/22 07:16:42;;;;;;;13.03;3.35;;;;;;;11.73;82.13;99366.22;1656589;85;21018;-84
2022/09/22 07:19:10;;;;;;;5.03;2.77;;;;;;;11.79;81.44;99368.27;1659836;85;21528;-83
2022/09/22 07:21:39;;;;;;;6.60;3.20;;;;;;;11.96;81.89;99367.42;1644090;86;21519;-85
2022/09/22 07:24:08;;;;;;;7.17;2.83;;;;;;;11.88;81.56;99360.23;1666727;84;21611;-81
2022/09/22 07:26:39;;;;;;;5.47;3.17;;;;;;;12.02;81.76;99365.11;1656740;85;21020;-79
2022/09/22 07:29:12;;;;;;;8.50;3.10;;;;;;;12.06;80.91;99366.28;1641968;86;21529;-85
2022/09/22 07:31:40;;;;;;;7.10;2.90;;;;;;;12.02;80.36;99363.34;1658774;85;21009;-86
2022/09/22 07:34:08;;;;;;;5.40;3.10;;;;;;;12.14;80.76;99365.62;1638772;87;21058;-81
2022/09/22 07:36:38;;;;;;;10.70;2.87;;;;;;;12.14;80.11;99375.20;1655616;85;21012;-87
2022/09/22 07:39:11;;;;;;;6.90;2.65;;;;;;;12.20;80.23;99372.42;1653139;85;20981;-84
2022/09/22 07:41:42;;;;;;;4.80;2.57;;;;;;;12.21;79.37;99367.59;1658337;86;21009;-83
2022/09/22 07:47:03;;;;;;;4.55;2.62;;;;;;;12.06;79.26;99367.58;1659586;85;21056;-83
2022/09/22 07:49:31;;;;;;;5.83;2.70;;;;;;;12.10;79.17;99376.17;1656145;86;21048;-83
2022/09/22 07:51:58;;;;;;;5.35;2.47;;;;;;;12.13;79.45;99376.92;1656568;85;21037;-85
2022/09/22 07:54:28;;;;;;;5.10;2.65;;;;;;;12.19;79.23;99375.06;1654092;85;20988;-85
2022/09/22 07:56:59;;;;;;;5.10;2.80;;;;;;;12.27;78.91;99375.70;1648748;86;21152;-84
2022/09/22 07:59:27;;;;;;;5.67;2.95;;;;;;;12.31;79.19;99378.20;1639985;87;21053;-81
2022/09/22 08:01:55;;;;;;;5.85;2.95;;;;;;;12.44;79.16;99372.19;1641082;86;20997;-82
2022/09/22 08:04:25;;;;;;;6.28;2.80;;;;;;;12.59;79.20;99363.51;1643147;86;21013;-82
2022/09/22 08:06:54;;;;;;;8.98;2.62;;;;;;;12.72;78.83;99368.78;1642089;86;21057;-82
2022/09/22 08:09:24;;;;;;;11.80;2.50;;;;;;;12.80;78.55;99362.03;1641789;86;21021;-79
2022/09/22 08:11:51;;;;;;;8.70;2.40;;;;;;;12.83;76.19;99364.53;1643675;86;20967;-81
2022/09/22 08:14:21;;;;;;;7.85;3.12;;;;;;;12.88;76.55;99362.66;1620486;87;21556;-81
2022/09/22 08:16:50;;;;;;;5.65;2.47;;;;;;;13.01;76.63;99360.52;1643246;86;20946;-80
2022/09/22 08:19:18;;;;;;;6.20;2.27;;;;;;;13.18;75.83;99364.77;1641295;86;21005;-79
2022/09/22 08:21:48;;;;;;;4.75;2.35;;;;;;;13.17;75.49;99359.59;1641362;86;21080;-83
2022/09/22 08:24:20;;;;;;;5.33;2.33;;;;;;;13.19;74.36;99359.09;1636866;86;21502;-82
2022/09/22 08:26:49;;;;;;;10.70;3.55;;;;;;;13.27;75.21;99358.39;1638587;87;21548;-81
2022/09/22 08:29:17;;;;;;;4.08;2.33;;;;;;;13.29;74.64;99355.28;1632099;86;21029;-81
2022/09/22 08:31:46;;;;;;;5.60;2.60;;;;;;;13.37;74.44;99357.68;1641714;87;21520;-82
2022/09/22 08:34:15;;;;;;;5.15;2.22;;;;;;;13.44;73.58;99361.81;1640303;87;20997;-84
2022/09/22 08:36:49;;;;;;;5.28;2.17;;;;;;;13.50;73.22;99354.62;1642862;87;21009;-81
2022/09/22 08:39:17;;;;;;;6.15;2.05;;;;;;;13.65;73.38;99357.19;1639015;86;21017;-82
2022/09/22 08:42:11;;;;;;;4.80;2.08;;;;;;;13.71;72.11;99350.91;1638572;87;21010;-84
2022/09/22 08:44:52;;;;;;;3.40;1.75;;;;;;;13.69;71.50;99354.88;1624906;86;21054;-82
2022/09/22 08:53:22;;;;;;;5.45;2.17;;;;;;;14.01;70.65;99345.53;1635260;86;21061;-83
2022/09/22 08:56:17;;;;;;;2.80;1.57;;;;;;;14.03;69.37;99339.34;1643662;87;21525;-80
2022/09/22 08:59:23;;;;;;;4.53;1.77;;;;;;;14.15;70.01;99343.28;1642875;86;21002;-87
2022/09/22 09:02:23;;;;;;;3.12;1.80;;;;;;;14.31;69.82;99334.42;1645712;86;21009;-85
2022/09/22 09:05:29;;;;;;;2.20;1.45;;;;;;;14.38;66.89;99337.20;1644986;86;21154;-84
2022/09/22 09:08:21;;;;;;;3.58;2.00;;;;;;;14.50;68.05;99328.92;1640934;86;20945;-83
2022/09/22 09:11:00;;;;;;;3.25;1.70;;;;;;;14.59;67.10;99329.52;1643726;86;21636;-84
2022/09/22 09:13:52;;;;;;;12.65;2.20;;;;;;;14.77;67.15;99327.49;1643774;86;21017;-83
2022/09/22 09:16:50;;;;;;;4.53;1.70;;;;;;;14.97;66.94;99330.64;1643564;86;21072;-83
2022/09/22 09:19:38;;;;;;;2.25;1.50;;;;;;;15.09;65.11;99321.45;1640651;86;21014;-79
2022/09/22 09:22:24;;;;;;;2.92;1.67;;;;;;;15.22;65.14;99318.75;1640664;86;22067;-81
2022/09/22 09:25:21;;;;;;;7.37;2.10;;;;;;;15.35;64.88;99315.16;1641641;86;21811;-80
2022/09/22 09:27:58;;;;;;;4.78;2.00;;;;;;;15.48;64.81;99322.06;1638127;86;21019;-82
2022/09/22 09:30:30;;;;;;;3.20;1.72;;;;;;;15.57;63.00;99319.04;1641016;86;22119;-83
2022/09/22 09:33:09;;;;;;;4.25;1.50;;;;;;;15.59;63.58;99310.66;1640965;86;21071;-81
2022/09/22 09:35:52;;;;;;;2.75;1.47;;;;;;;15.70;61.96;99316.77;1642292;86;21013;-80
2022/09/22 09:38:34;;;;;;;2.80;1.40;;;;;;;15.78;61.49;99318.63;1644223;86;21001;-80
2022/09/22 09:41:25;;;;;;;8.78;1.87;;;;;;;15.79;60.92;99312.92;1640852;87;22036;-82
2022/09/22 09:43:55;;;;;;;2.75;1.40;;;;;;;15.73;57.25;99319.74;1616890;86;20982;-85
2022/09/22 09:46:40;;;;;;;2.77;1.50;;;;;;;15.80;61.03;99306.78;1643968;85;20981;-83
2022/09/22 09:49:16;;;;;;;3.10;1.55;;;;;;;15.79;60.35;99303.28;1611363;88;20980;-83
2022/09/22 09:51:48;;;;;;;4.87;1.67;;;;;;;15.84;57.89;99312.28;1638213;87;20993;-79
2022/09/22 09:54:19;;;;;;;4.75;1.70;;;;;;;15.68;57.86;99303.72;1639776;86;20973;-80
2022/09/22 09:57:10;;;;;;;4.17;1.67;;;;;;;15.81;59.44;99309.78;1642100;86;21553;-81
2022/09/22 10:02:39;;;;;;;3.02;1.60;;;;;;;15.94;58.18;99300.47;1640598;86;21016;-81
2022/09/22 10:05:25;;;;;;;3.60;1.40;;;;;;;16.05;58.17;99303.45;1612242;85;21035;-80
2022/09/22 10:07:59;;;;;;;2.52;1.60;;;;;;;16.12;58.54;99293.56;1641649;86;21033;-84
2022/09/22 10:10:40;;;;;;;3.98;1.67;;;;;;;16.04;58.52;99304.39;1641098;87;21057;-80
2022/09/22 10:13:13;;;;;;;5.33;2.12;;;;;;;15.98;59.06;99296.80;1643984;87;21081;-79
2022/09/22 10:15:42;;;;;;;7.00;1.80;;;;;;;15.96;58.56;99299.09;1606453;88;21073;-82
2022/09/22 10:18:29;;;;;;;3.00;1.67;;;;;;;16.12;59.38;99297.96;1631993;86;20999;-78
2022/09/22 10:21:21;;;;;;;4.28;1.90;;;;;;;16.27;58.70;99286.32;1655299;85;21024;-78
2022/09/22 10:23:57;;;;;;;6.55;1.80;;;;;;;16.42;59.04;99289.16;1623738;86;21023;-81
2022/09/22 10:26:29;;;;;;;3.95;1.80;;;;;;;16.54;57.97;99292.52;1629398;86;21089;-82
2022/09/22 10:29:18;;;;;;;3.83;1.80;;;;;;;16.50;57.46;99286.56;1644294;86;20989;-81
2022/09/22 10:32:14;;;;;;;3.05;1.52;;;;;;;16.67;55.85;99274.41;1622553;88;21517;-81
2022/09/22 10:34:50;;;;;;;2.72;1.52;;;;;;;16.76;57.20;99279.23;1631342;86;21024;-82
2022/09/22 10:37:24;;;;;;;3.65;1.70;;;;;;;16.86;55.89;99275.28;1627849;86;21849;-82
2022/09/22 10:39:57;;;;;;;3.25;1.72;;;;;;;17.00;55.93;99274.61;1625586;88;20989;-80
2022/09/22 10:42:42;;;;;;;3.58;1.87;;;;;;;17.02;54.85;99281.11;1627922;88;21036;-80
2022/09/22 10:45:14;;;;;;;5.03;2.62;;;;;;;17.08;54.61;99284.28;1629005;86;21072;-80
2022/09/22 10:48:03;;;;;;;2.80;1.50;;;;;;;17.07;53.45;99277.81;1639879;86;21001;-80
2022/09/22 10:51:13;;;;;;;3.15;1.70;;;;;;;17.21;55.70;99266.16;1642150;87;21509;-81
2022/09/22 10:54:07;;;;;;;6.72;1.30;;;;;;;17.28;54.83;99266.22;1642438;86;21049;-79
2022/09/22 10:56:52;;;;;;;7.17;3.83;;;;;;;17.19;54.13;99271.07;1631212;85;21029;-83
2022/09/22 10:59:31;;;;;;;2.90;1.60;;;;;;;17.14;52.32;99271.31;1644806;86;21493;-84
2022/09/22 11:02:22;;;;;;;4.50;1.20;;;;;;;17.11;50.92;99259.66;1643378;87;21057;-81
2022/09/22 11:12:15;;;;;;;1.90;1.15;;;;;;;16.97;48.51;99262.95;1587792;87;21484;-84
2022/09/22 11:14:12;;;;;;;11.38;5.45;;;;;;;16.42;49.62;99255.89;1643065;86;21580;-81
2022/09/22 11:17:03;;;;;;;6.83;4.15;;;;;;;16.22;50.41;99263.84;1637533;86;21001;-82
2022/09/22 11:20:05;;;;;;;2.95;1.60;;;;;;;15.90;51.06;99253.87;1646212;86;20975;-80
2022/09/22 11:23:05;;;;;;;2.30;1.32;;;;;;;15.93;53.14;99251.55;1640630;86;21005;-85
2022/09/22 11:26:11;;;;;;;2.58;1.30;;;;;;;15.78;54.74;99249.64;1609264;87;21538;-86
2022/09/22 11:29:06;;;;;;;3.00;1.50;;;;;;;15.59;55.76;99265.27;1637922;87;21069;-82
2022/09/22 11:32:00;;;;;;;3.02;1.70;;;;;;;15.36;56.51;99258.36;1618956;88;21542;-84
2022/09/22 11:35:06;;;;;;;3.72;1.67;;;;;;;15.03;60.84;99265.41;1624762;87;21046;-81
2022/09/22 11:37:56;;;;;;;13.93;1.82;;;;;;;14.67;63.42;99259.42;1623153;87;21019;-81
2022/09/22 11:40:48;;;;;;;2.98;1.30;;;;;;;14.46;60.65;99260.63;1645950;86;21138;-80
2022/09/22 11:43:43;;;;;;;1.05;0.82;;;;;;;14.10;59.58;99253.22;1400723;88;10000347;-82
2022/09/22 11:46:35;;;;;;;1.80;1.05;;;;;;;14.10;59.58;99253.22;1643470;86;21013;-85
2022/09/22 11:49:11;;;;;;;1.85;0.88;;;;;;;14.12;60.26;99247.95;1653951;85;21119;-82
2022/09/22 11:52:14;;;;;;;2.75;1.30;;;;;;;14.19;59.84;99245.98;1659146;85;21317;-85
2022/09/22 11:55:02;;;;;;;3.37;1.40;;;;;;;14.33;60.13;99239.30;1641104;86;20970;-81
2022/09/22 11:57:39;;;;;;;3.17;1.30;;;;;;;14.58;61.11;99246.22;1646288;85;21062;-82
2022/09/22 12:00:17;;;;;;;4.75;1.55;;;;;;;14.77;61.28;99237.67;1670203;84;21064;-82
2022/09/22 12:03:04;;;;;;;8.15;2.60;;;;;;;14.97;62.40;99237.70;1668588;86;21047;-84
2022/09/22 12:05:46;;;;;;;10.95;2.62;;;;;;;15.25;62.66;99234.79;1674920;84;21057;-82
2022/09/22 12:08:20;;;;;;;2.20;1.12;;;;;;;15.43;63.32;99234.94;1669972;84;21082;-82
2022/09/22 12:10:50;;;;;;;2.30;1.22;;;;;;;15.60;61.33;99231.14;1675468;86;21029;-83
2022/09/22 12:13:26;;;;;;;1.22;0.90;;;;;;;15.71;62.00;99228.03;1660148;85;20965;-83
2022/09/22 12:16:00;;;;;;;1.90;1.00;;;;;;;15.93;61.09;99229.27;1652991;85;21117;-81
2022/09/22 12:18:53;;;;;;;2.20;1.07;;;;;;;16.02;60.34;99227.55;1645319;85;21041;-81
2022/09/22 12:22:04;;;;;;;2.23;1.10;;;;;;;16.07;59.11;99221.63;1353020;85;9999993;-84
2022/09/22 12:24:33;;;;;;;2.83;1.20;;;;;;;16.32;58.04;99233.63;1601259;88;21003;-85
2022/09/22 12:27:19;;;;;;;3.08;1.50;;;;;;;16.38;58.33;99235.97;1632931;85;21073;-86
2022/09/22 12:30:00;;;;;;;2.05;1.15;;;;;;;16.45;57.14;99234.77;1353508;85;10000335;-86
2022/09/22 12:32:36;;;;;;;4.47;2.00;;;;;;;16.50;56.39;99234.07;1650685;85;21070;-82
2022/09/22 12:35:06;;;;;;;2.33;1.20;;;;;;;16.54;57.28;99244.44;1395636;86;10000561;-83
2022/09/22 12:37:37;;;;;;;2.40;1.37;;;;;;;16.62;57.96;99247.08;1626429;86;21026;-87
2022/09/22 12:40:30;;;;;;;7.72;1.30;;;;;;;16.47;57.25;99243.42;1670086;84;20962;-86